sensor_id;sensor_type;location;lat;lon;timestamp;pressure;altitude;pressure_sealevel;temperature;humidity
64792;BME280;51226;47.504;19.074;2023-05-31T00:01:36;100455.62;;;19.14;59.20
64792;BME280;51226;47.504;19.074;2023-05-31T00:04:39;100460.91;;;19.14;58.70
64792;BME280;51226;47.504;19.074;2023-05-31T00:07:42;100458.25;;;19.06;58.94
64792;BME280;51226;47.504;19.074;2023-05-31T00:10:45;100455.59;;;19.05;58.95
64792;BME280;51226;47.504;19.074;2023-05-31T00:13:47;100459.19;;;19.16;58.40
64792;BME280;51226;47.504;19.074;2023-05-31T00:16:50;100454.75;;;19.14;58.47
64792;BME280;51226;47.504;19.074;2023-05-31T00:20:12;100461.78;;;19.07;58.55
64792;BME280;51226;47.504;19.074;2023-05-31T00:23:16;100463.56;;;19.17;58.23
64792;BME280;51226;47.504;19.074;2023-05-31T00:26:18;100468.81;;;19.00;58.67
64792;BME280;51226;47.504;19.074;2023-05-31T00:29:22;100468.78;;;18.99;58.75
64792;BME280;51226;47.504;19.074;2023-05-31T00:32:25;100469.69;;;18.98;58.70
64792;BME280;51226;47.504;19.074;2023-05-31T00:35:28;100462.56;;;18.91;59.27
64792;BME280;51226;47.504;19.074;2023-05-31T00:38:30;100465.25;;;18.95;59.08
64792;BME280;51226;47.504;19.074;2023-05-31T00:41:33;100462.62;;;18.97;59.08
64792;BME280;51226;47.504;19.074;2023-05-31T00:44:36;100469.69;;;18.98;58.76
64792;BME280;51226;47.504;19.074;2023-05-31T00:47:39;100467.91;;;18.95;58.88
64792;BME280;51226;47.504;19.074;2023-05-31T00:50:42;100464.41;;;18.98;58.53
64792;BME280;51226;47.504;19.074;2023-05-31T00:53:45;100472.28;;;18.92;58.84
64792;BME280;51226;47.504;19.074;2023-05-31T00:56:47;100463.47;;;18.88;58.74
64792;BME280;51226;47.504;19.074;2023-05-31T00:59:51;100465.22;;;18.92;58.38
64792;BME280;51226;47.504;19.074;2023-05-31T01:02:55;100459.94;;;18.92;58.26
64792;BME280;51226;47.504;19.074;2023-05-31T01:05:59;100470.50;;;18.89;58.42
64792;BME280;51226;47.504;19.074;2023-05-31T01:09:02;100457.25;;;18.86;58.77
64792;BME280;51226;47.504;19.074;2023-05-31T01:12:15;100456.41;;;18.87;58.78
64792;BME280;51226;47.504;19.074;2023-05-31T01:15:27;100458.19;;;18.91;59.37
64792;BME280;51226;47.504;19.074;2023-05-31T01:25:29;100455.53;;;18.93;58.21
64792;BME280;51226;47.504;19.074;2023-05-31T01:28:35;100458.19;;;18.90;58.42
64792;BME280;51226;47.504;19.074;2023-05-31T01:31:39;100461.69;;;18.90;58.06
64792;BME280;51226;47.504;19.074;2023-05-31T01:34:45;100460.81;;;18.94;58.36
64792;BME280;51226;47.504;19.074;2023-05-31T01:37:50;100465.25;;;18.97;57.42
64792;BME280;51226;47.504;19.074;2023-05-31T01:40:53;100461.75;;;18.96;57.12
64792;BME280;51226;47.504;19.074;2023-05-31T01:43:58;100457.31;;;18.95;56.82
64792;BME280;51226;47.504;19.074;2023-05-31T01:47:01;100460.84;;;18.97;57.69
64792;BME280;51226;47.504;19.074;2023-05-31T01:50:07;100460.00;;;19.00;57.70
64792;BME280;51226;47.504;19.074;2023-05-31T01:53:09;100457.44;;;19.23;54.43
64792;BME280;51226;47.504;19.074;2023-05-31T01:56:14;100456.50;;;19.10;55.19
64792;BME280;51226;47.504;19.074;2023-05-31T01:59:17;100456.50;;;19.09;54.65
64792;BME280;51226;47.504;19.074;2023-05-31T02:02:21;100459.09;;;19.02;54.80
64792;BME280;51226;47.504;19.074;2023-05-31T02:05:24;100467.03;;;18.99;54.82
64792;BME280;51226;47.504;19.074;2023-05-31T02:08:27;100454.69;;;18.97;54.83
64792;BME280;51226;47.504;19.074;2023-05-31T02:11:30;100463.50;;;18.97;54.63
64792;BME280;51226;47.504;19.074;2023-05-31T02:14:33;100465.25;;;18.95;54.73
64792;BME280;51226;47.504;19.074;2023-05-31T02:17:35;100462.59;;;18.92;54.78
64792;BME280;51226;47.504;19.074;2023-05-31T02:20:38;100459.91;;;18.86;54.96
64792;BME280;51226;47.504;19.074;2023-05-31T02:23:41;100470.56;;;18.98;54.11
64792;BME280;51226;47.504;19.074;2023-05-31T02:26:44;100473.16;;;18.92;54.34
64792;BME280;51226;47.504;19.074;2023-05-31T02:29:47;100467.00;;;18.90;54.31
64792;BME280;51226;47.504;19.074;2023-05-31T02:32:50;100471.34;;;18.83;54.56
64792;BME280;51226;47.504;19.074;2023-05-31T02:35:53;100476.75;;;19.03;53.79
64792;BME280;51226;47.504;19.074;2023-05-31T02:38:56;100471.37;;;18.85;54.31
64792;BME280;51226;47.504;19.074;2023-05-31T02:41:59;100471.34;;;18.83;54.39
64792;BME280;51226;47.504;19.074;2023-05-31T02:45:03;100480.16;;;18.84;54.31
64792;BME280;51226;47.504;19.074;2023-05-31T02:48:06;100482.81;;;18.85;54.28
64792;BME280;51226;47.504;19.074;2023-05-31T02:51:09;100470.44;;;18.80;54.52
64792;BME280;51226;47.504;19.074;2023-05-31T02:54:13;100470.41;;;18.77;54.38
64792;BME280;51226;47.504;19.074;2023-05-31T02:57:16;100476.56;;;18.77;54.56
64792;BME280;51226;47.504;19.074;2023-05-31T03:00:19;100472.16;;;18.75;55.06
64792;BME280;51226;47.504;19.074;2023-05-31T03:03:23;100480.09;;;18.79;54.58
64792;BME280;51226;47.504;19.074;2023-05-31T03:06:27;100483.66;;;18.80;54.42
64792;BME280;51226;47.504;19.074;2023-05-31T03:09:31;100482.75;;;18.81;54.25
64792;BME280;51226;47.504;19.074;2023-05-31T03:12:33;100480.94;;;18.72;54.70
64792;BME280;51226;47.504;19.074;2023-05-31T03:15:37;100483.59;;;18.74;54.85
64792;BME280;51226;47.504;19.074;2023-05-31T03:18:40;100486.25;;;18.74;55.00
64792;BME280;51226;47.504;19.074;2023-05-31T03:21:43;100488.03;;;18.78;54.64
64792;BME280;51226;47.504;19.074;2023-05-31T03:24:46;100484.59;;;18.85;54.58
64792;BME280;51226;47.504;19.074;2023-05-31T03:27:51;100492.53;;;18.94;54.29
64792;BME280;51226;47.504;19.074;2023-05-31T03:30:54;100495.25;;;19.03;53.72
64792;BME280;51226;47.504;19.074;2023-05-31T03:33:58;100491.72;;;18.98;53.62
64792;BME280;51226;47.504;19.074;2023-05-31T03:37:01;100497.81;;;18.93;53.63
64792;BME280;51226;47.504;19.074;2023-05-31T03:40:05;100497.81;;;18.86;53.96
64792;BME280;51226;47.504;19.074;2023-05-31T03:43:08;100493.41;;;18.90;53.90
64792;BME280;51226;47.504;19.074;2023-05-31T03:46:13;100498.75;;;18.99;53.71
64792;BME280;51226;47.504;19.074;2023-05-31T03:49:16;100501.37;;;18.95;53.59
64792;BME280;51226;47.504;19.074;2023-05-31T03:52:19;100501.37;;;18.93;53.82
64792;BME280;51226;47.504;19.074;2023-05-31T03:55:22;100498.72;;;18.93;53.63
64792;BME280;51226;47.504;19.074;2023-05-31T03:58:27;100504.16;;;19.18;52.84
64792;BME280;51226;47.504;19.074;2023-05-31T04:01:30;100505.84;;;19.05;53.27
64792;BME280;51226;47.504;19.074;2023-05-31T04:04:35;100505.81;;;19.00;53.21
64792;BME280;51226;47.504;19.074;2023-05-31T04:07:38;100511.16;;;19.13;52.83
64792;BME280;51226;47.504;19.074;2023-05-31T04:10:41;100503.25;;;19.19;52.62
64792;BME280;51226;47.504;19.074;2023-05-31T04:13:43;100512.94;;;19.14;52.76
64792;BME280;51226;47.504;19.074;2023-05-31T04:16:46;100520.84;;;19.11;52.91
64792;BME280;51226;47.504;19.074;2023-05-31T04:19:49;100520.84;;;19.11;52.71
64792;BME280;51226;47.504;19.074;2023-05-31T04:22:52;100519.09;;;19.11;53.22
64792;BME280;51226;47.504;19.074;2023-05-31T04:25:55;100523.50;;;19.14;52.70
64792;BME280;51226;47.504;19.074;2023-05-31T04:28:59;100525.31;;;19.27;52.24
64792;BME280;51226;47.504;19.074;2023-05-31T04:32:02;100531.50;;;19.31;52.17
64792;BME280;51226;47.504;19.074;2023-05-31T04:35:06;100532.41;;;19.33;51.98
64792;BME280;51226;47.504;19.074;2023-05-31T04:38:10;100536.81;;;19.34;52.07
64792;BME280;51226;47.504;19.074;2023-05-31T04:41:15;100532.41;;;19.37;52.05
64792;BME280;51226;47.504;19.074;2023-05-31T04:44:18;100531.59;;;19.43;51.95
64792;BME280;51226;47.504;19.074;2023-05-31T04:47:22;100541.38;;;19.70;50.87
64792;BME280;51226;47.504;19.074;2023-05-31T04:50:25;100543.97;;;19.55;51.35
64792;BME280;51226;47.504;19.074;2023-05-31T04:53:32;100541.34;;;19.58;51.64
64792;BME280;51226;47.504;19.074;2023-05-31T04:56:35;100544.00;;;19.64;51.53
64792;BME280;51226;47.504;19.074;2023-05-31T04:59:38;100544.91;;;19.72;52.46
64792;BME280;51226;47.504;19.074;2023-05-31T05:02:41;100548.50;;;19.80;51.56
64792;BME280;51226;47.504;19.074;2023-05-31T05:05:45;100547.59;;;19.78;51.33
64792;BME280;51226;47.504;19.074;2023-05-31T05:08:47;100547.59;;;19.78;51.51
64792;BME280;51226;47.504;19.074;2023-05-31T05:11:50;100550.28;;;19.95;50.24
64792;BME280;51226;47.504;19.074;2023-05-31T05:14:56;100554.72;;;19.96;50.37
64792;BME280;51226;47.504;19.074;2023-05-31T05:18:03;100549.41;;;20.03;50.75
64792;BME280;51226;47.504;19.074;2023-05-31T05:21:07;100551.19;;;20.04;50.84
64792;BME280;51226;47.504;19.074;2023-05-31T05:24:11;100545.91;;;20.16;50.02
64792;BME280;51226;47.504;19.074;2023-05-31T05:27:14;100545.91;;;20.33;49.39
64792;BME280;51226;47.504;19.074;2023-05-31T05:30:18;100539.72;;;20.29;49.44
64792;BME280;51226;47.504;19.074;2023-05-31T05:33:22;100538.87;;;20.36;49.26
64792;BME280;51226;47.504;19.074;2023-05-31T05:36:25;100547.69;;;20.39;49.00
64792;BME280;51226;47.504;19.074;2023-05-31T05:39:28;100544.16;;;20.35;48.62
64792;BME280;51226;47.504;19.074;2023-05-31T05:42:32;100550.34;;;20.31;49.07
64792;BME280;51226;47.504;19.074;2023-05-31T05:45:34;100555.66;;;20.40;48.72
64792;BME280;51226;47.504;19.074;2023-05-31T05:48:37;100552.09;;;20.60;48.31
64792;BME280;51226;47.504;19.074;2023-05-31T05:51:40;100556.53;;;20.51;48.26
64792;BME280;51226;47.504;19.074;2023-05-31T05:54:44;100553.91;;;20.67;48.25
64792;BME280;51226;47.504;19.074;2023-05-31T05:57:46;100556.50;;;20.54;49.39
64792;BME280;51226;47.504;19.074;2023-05-31T06:00:50;100554.78;;;20.63;47.98
64792;BME280;51226;47.504;19.074;2023-05-31T06:03:53;100554.75;;;20.81;47.80
64792;BME280;51226;47.504;19.074;2023-05-31T06:06:57;100553.00;;;20.79;47.86
64792;BME280;51226;47.504;19.074;2023-05-31T06:10:00;100560.97;;;20.71;48.36
64792;BME280;51226;47.504;19.074;2023-05-31T06:13:05;100559.19;;;20.88;47.70
64792;BME280;51226;47.504;19.074;2023-05-31T06:16:07;100565.38;;;20.89;48.14
64792;BME280;51226;47.504;19.074;2023-05-31T06:19:10;100571.53;;;20.97;48.51
64792;BME280;51226;47.504;19.074;2023-05-31T06:22:13;100567.97;;;21.06;48.28
64792;BME280;51226;47.504;19.074;2023-05-31T06:25:16;100565.28;;;21.29;46.96
64792;BME280;51226;47.504;19.074;2023-05-31T06:28:20;100566.13;;;21.39;46.87
64792;BME280;51226;47.504;19.074;2023-05-31T06:31:23;100567.94;;;21.27;49.79
64792;BME280;51226;47.504;19.074;2023-05-31T06:34:26;100565.22;;;21.44;46.98
64792;BME280;51226;47.504;19.074;2023-05-31T06:37:33;100573.19;;;21.55;47.75
64792;BME280;51226;47.504;19.074;2023-05-31T06:40:36;100566.03;;;21.68;47.13
64792;BME280;51226;47.504;19.074;2023-05-31T06:43:40;100562.47;;;21.75;47.78
64792;BME280;51226;47.504;19.074;2023-05-31T06:46:43;100573.00;;;21.94;46.62
64792;BME280;51226;47.504;19.074;2023-05-31T06:49:48;100566.63;;;22.16;45.94
64792;BME280;51226;47.504;19.074;2023-05-31T06:52:53;100565.69;;;22.31;46.59
64792;BME280;51226;47.504;19.074;2023-05-31T06:55:58;100573.53;;;22.45;45.03
64792;BME280;51226;47.504;19.074;2023-05-31T06:59:01;100568.16;;;22.54;45.39
64792;BME280;51226;47.504;19.074;2023-05-31T07:02:04;100572.50;;;22.63;45.21
64792;BME280;51226;47.504;19.074;2023-05-31T07:05:07;100573.28;;;22.79;46.37
64792;BME280;51226;47.504;19.074;2023-05-31T07:08:10;100575.81;;;22.91;47.17
64792;BME280;51226;47.504;19.074;2023-05-31T07:11:14;100572.16;;;23.00;47.65
64792;BME280;51226;47.504;19.074;2023-05-31T07:14:17;100580.75;;;23.30;43.87
64792;BME280;51226;47.504;19.074;2023-05-31T07:17:19;100579.81;;;23.36;45.74
64792;BME280;51226;47.504;19.074;2023-05-31T07:20:22;100579.34;;;23.73;43.52
64792;BME280;51226;47.504;19.074;2023-05-31T07:23:25;100578.38;;;23.80;44.36
64792;BME280;51226;47.504;19.074;2023-05-31T07:26:28;100580.88;;;23.92;43.53
64792;BME280;51226;47.504;19.074;2023-05-31T07:29:31;100582.31;;;24.18;41.74
64792;BME280;51226;47.504;19.074;2023-05-31T07:32:34;100571.06;;;24.53;39.21
64792;BME280;51226;47.504;19.074;2023-05-31T07:35:36;100575.44;;;24.60;38.91
64792;BME280;51226;47.504;19.074;2023-05-31T07:38:40;100569.94;;;24.70;39.00
64792;BME280;51226;47.504;19.074;2023-05-31T07:41:43;100568.81;;;24.83;41.57
64792;BME280;51226;47.504;19.074;2023-05-31T07:44:46;100575.44;;;25.10;37.77
64792;BME280;51226;47.504;19.074;2023-05-31T07:47:51;100571.03;;;25.55;35.70
64792;BME280;51226;47.504;19.074;2023-05-31T07:50:55;100572.53;;;25.68;36.10
64792;BME280;51226;47.504;19.074;2023-05-31T07:53:57;100566.72;;;25.89;34.95
64792;BME280;51226;47.504;19.074;2023-05-31T07:57:00;100571.91;;;25.97;36.35
64792;BME280;51226;47.504;19.074;2023-05-31T08:00:03;100568.69;;;26.22;33.83
64792;BME280;51226;47.504;19.074;2023-05-31T08:03:13;100566.94;;;26.19;36.55
64792;BME280;51226;47.504;19.074;2023-05-31T08:06:17;100571.84;;;26.38;35.83
64792;BME280;51226;47.504;19.074;2023-05-31T08:09:19;100574.84;;;26.63;36.55
64792;BME280;51226;47.504;19.074;2023-05-31T08:12:22;100569.59;;;26.93;34.14
64792;BME280;51226;47.504;19.074;2023-05-31T08:15:29;100567.53;;;27.03;36.33
64792;BME280;51226;47.504;19.074;2023-05-31T08:18:32;100575.28;;;27.46;32.93
64792;BME280;51226;47.504;19.074;2023-05-31T08:21:34;100574.34;;;27.79;32.67
64792;BME280;51226;47.504;19.074;2023-05-31T08:24:39;100579.44;;;28.16;33.69
64792;BME280;51226;47.504;19.074;2023-05-31T08:27:41;100572.66;;;28.33;33.42
64792;BME280;51226;47.504;19.074;2023-05-31T08:30:44;100566.25;;;28.65;31.91
64792;BME280;51226;47.504;19.074;2023-05-31T08:33:54;100568.84;;;28.68;34.19
64792;BME280;51226;47.504;19.074;2023-05-31T08:36:57;100568.13;;;28.88;32.26
64792;BME280;51226;47.504;19.074;2023-05-31T08:40:00;100563.63;;;29.15;33.38
64792;BME280;51226;47.504;19.074;2023-05-31T08:43:05;100556.88;;;29.29;31.86
64792;BME280;51226;47.504;19.074;2023-05-31T08:46:10;100572.19;;;29.98;30.15
64792;BME280;51226;47.504;19.074;2023-05-31T08:49:13;100571.69;;;30.32;31.88
64792;BME280;51226;47.504;19.074;2023-05-31T08:52:18;100568.25;;;30.93;28.22
64792;BME280;51226;47.504;19.074;2023-05-31T08:55:21;100557.16;;;31.21;28.65
64792;BME280;51226;47.504;19.074;2023-05-31T08:58:25;100565.59;;;31.53;29.10
64792;BME280;51226;47.504;19.074;2023-05-31T09:01:28;100564.53;;;31.57;29.60
64792;BME280;51226;47.504;19.074;2023-05-31T09:04:33;100568.81;;;31.62;29.52
64792;BME280;51226;47.504;19.074;2023-05-31T09:07:36;100553.34;;;32.22;25.90
64792;BME280;51226;47.504;19.074;2023-05-31T09:10:39;100554.12;;;32.24;25.90
64792;BME280;51226;47.504;19.074;2023-05-31T09:13:42;100550.19;;;32.31;28.31
64792;BME280;51226;47.504;19.074;2023-05-31T09:16:44;100540.00;;;32.73;28.31
64792;BME280;51226;47.504;19.074;2023-05-31T09:19:55;100551.97;;;33.02;28.55
64792;BME280;51226;47.504;19.074;2023-05-31T09:23:01;100539.72;;;33.46;25.20
64792;BME280;51226;47.504;19.074;2023-05-31T09:26:05;100542.94;;;33.70;24.52
64792;BME280;51226;47.504;19.074;2023-05-31T09:29:08;100550.34;;;33.83;26.46
64792;BME280;51226;47.504;19.074;2023-05-31T09:32:12;100546.25;;;33.91;23.54
64792;BME280;51226;47.504;19.074;2023-05-31T09:35:17;100541.63;;;34.09;25.56
64792;BME280;51226;47.504;19.074;2023-05-31T09:38:30;100541.78;;;34.06;23.77
64792;BME280;51226;47.504;19.074;2023-05-31T09:41:33;100534.72;;;34.04;23.95
64792;BME280;51226;47.504;19.074;2023-05-31T09:44:36;100532.00;;;34.36;23.50
64792;BME280;51226;47.504;19.074;2023-05-31T09:47:38;100531.00;;;34.52;27.68
64792;BME280;51226;47.504;19.074;2023-05-31T09:50:41;100528.03;;;34.57;24.91
64792;BME280;51226;47.504;19.074;2023-05-31T09:53:44;100525.41;;;34.86;22.60
64792;BME280;51226;47.504;19.074;2023-05-31T09:56:49;100529.69;;;34.90;22.65
64792;BME280;51226;47.504;19.074;2023-05-31T09:59:55;100516.91;;;34.92;22.73
64792;BME280;51226;47.504;19.074;2023-05-31T10:02:58;100525.31;;;34.87;23.12
64792;BME280;51226;47.504;19.074;2023-05-31T10:06:02;100525.84;;;34.78;22.38
64792;BME280;51226;47.504;19.074;2023-05-31T10:09:05;100523.44;;;34.43;22.78
64792;BME280;51226;47.504;19.074;2023-05-31T10:12:10;100520.47;;;34.16;26.41
64792;BME280;51226;47.504;19.074;2023-05-31T10:15:15;100520.59;;;34.45;23.08
64792;BME280;51226;47.504;19.074;2023-05-31T10:18:19;100520.84;;;34.72;26.26
64792;BME280;51226;47.504;19.074;2023-05-31T10:21:24;100519.28;;;34.82;24.53
64792;BME280;51226;47.504;19.074;2023-05-31T10:24:30;100510.03;;;35.15;22.94
64792;BME280;51226;47.504;19.074;2023-05-31T10:27:39;100510.44;;;35.52;22.24
64792;BME280;51226;47.504;19.074;2023-05-31T10:30:44;100519.28;;;35.83;21.85
64792;BME280;51226;47.504;19.074;2023-05-31T10:33:48;100506.72;;;35.82;22.50
64792;BME280;51226;47.504;19.074;2023-05-31T10:36:56;100508.97;;;36.03;22.39
64792;BME280;51226;47.504;19.074;2023-05-31T10:43:09;100503.78;;;35.71;22.15
64792;BME280;51226;47.504;19.074;2023-05-31T10:46:15;100501.87;;;35.58;22.22
64792;BME280;51226;47.504;19.074;2023-05-31T10:49:19;100503.81;;;35.56;26.15
64792;BME280;51226;47.504;19.074;2023-05-31T10:52:22;100509.72;;;35.63;25.39
64792;BME280;51226;47.504;19.074;2023-05-31T10:55:27;100501.87;;;35.73;24.37
64792;BME280;51226;47.504;19.074;2023-05-31T10:58:30;100496.97;;;35.92;21.85
64792;BME280;51226;47.504;19.074;2023-05-31T11:01:34;100495.59;;;36.27;22.83
64792;BME280;51226;47.504;19.074;2023-05-31T11:04:37;100488.75;;;36.07;21.81
64792;BME280;51226;47.504;19.074;2023-05-31T11:07:40;100489.75;;;36.06;21.19
64792;BME280;51226;47.504;19.074;2023-05-31T11:10:43;100485.53;;;36.14;21.02
64792;BME280;51226;47.504;19.074;2023-05-31T11:13:54;100478.78;;;36.34;20.40
64792;BME280;51226;47.504;19.074;2023-05-31T11:20:03;100484.63;;;36.01;21.31
64792;BME280;51226;47.504;19.074;2023-05-31T11:26:19;100469.62;;;35.54;21.13
64792;BME280;51226;47.504;19.074;2023-05-31T11:29:23;100477.78;;;35.54;21.26
64792;BME280;51226;47.504;19.074;2023-05-31T11:35:40;100468.63;;;34.24;24.01
64792;BME280;51226;47.504;19.074;2023-05-31T11:38:44;100469.19;;;33.83;22.79
64792;BME280;51226;47.504;19.074;2023-05-31T11:41:47;100455.94;;;34.24;24.89
64792;BME280;51226;47.504;19.074;2023-05-31T11:44:50;100458.53;;;33.95;22.99
64792;BME280;51226;47.504;19.074;2023-05-31T11:48:17;100455.78;;;33.16;23.56
64792;BME280;51226;47.504;19.074;2023-05-31T11:51:16;100450.47;;;32.28;24.68
64792;BME280;51226;47.504;19.074;2023-05-31T11:54:19;100454.78;;;31.60;25.71
64792;BME280;51226;47.504;19.074;2023-05-31T11:57:27;100454.47;;;31.28;24.94
64792;BME280;51226;47.504;19.074;2023-05-31T12:00:30;100454.22;;;30.53;28.06
64792;BME280;51226;47.504;19.074;2023-05-31T12:03:39;100453.13;;;30.15;26.80
64792;BME280;51226;47.504;19.074;2023-05-31T12:06:41;100453.44;;;30.91;26.65
64792;BME280;51226;47.504;19.074;2023-05-31T12:09:45;100450.50;;;31.35;29.50
64792;BME280;51226;47.504;19.074;2023-05-31T12:12:48;100448.88;;;31.51;26.18
64792;BME280;51226;47.504;19.074;2023-05-31T12:15:51;100447.09;;;30.92;28.13
64792;BME280;51226;47.504;19.074;2023-05-31T12:18:56;100453.44;;;30.70;26.74
64792;BME280;51226;47.504;19.074;2023-05-31T12:22:00;100446.47;;;30.23;27.57
64792;BME280;51226;47.504;19.074;2023-05-31T12:25:03;100453.28;;;29.67;31.41
64792;BME280;51226;47.504;19.074;2023-05-31T12:28:07;100445.03;;;29.26;29.03
64792;BME280;51226;47.504;19.074;2023-05-31T12:31:09;100446.22;;;28.94;30.45
64792;BME280;51226;47.504;19.074;2023-05-31T12:34:13;100439.09;;;29.40;29.85
64792;BME280;51226;47.504;19.074;2023-05-31T12:37:16;100430.56;;;29.74;28.55
64792;BME280;51226;47.504;19.074;2023-05-31T12:40:19;100427.59;;;30.25;28.19
64792;BME280;51226;47.504;19.074;2023-05-31T12:43:25;100419.53;;;30.45;29.70
64792;BME280;51226;47.504;19.074;2023-05-31T12:46:28;100414.75;;;30.73;28.42
64792;BME280;51226;47.504;19.074;2023-05-31T12:49:38;100416.06;;;30.83;26.44
64792;BME280;51226;47.504;19.074;2023-05-31T12:52:41;100417.31;;;31.34;26.26
64792;BME280;51226;47.504;19.074;2023-05-31T12:55:43;100414.22;;;31.42;24.87
64792;BME280;51226;47.504;19.074;2023-05-31T12:58:46;100408.19;;;31.18;24.91
64792;BME280;51226;47.504;19.074;2023-05-31T13:01:50;100408.47;;;30.72;25.62
64792;BME280;51226;47.504;19.074;2023-05-31T13:04:53;100412.84;;;30.34;26.20
64792;BME280;51226;47.504;19.074;2023-05-31T13:07:59;100412.09;;;30.30;26.62
64792;BME280;51226;47.504;19.074;2023-05-31T13:11:03;100397.72;;;30.31;26.19
64792;BME280;51226;47.504;19.074;2023-05-31T13:14:06;100406.06;;;30.45;25.83
64792;BME280;51226;47.504;19.074;2023-05-31T13:17:10;100393.72;;;30.41;25.85
64792;BME280;51226;47.504;19.074;2023-05-31T13:20:12;100396.06;;;30.49;26.38
64792;BME280;51226;47.504;19.074;2023-05-31T13:23:19;100387.75;;;30.74;25.15
64792;BME280;51226;47.504;19.074;2023-05-31T13:26:22;100389.87;;;30.87;24.89
64792;BME280;51226;47.504;19.074;2023-05-31T13:29:26;100380.19;;;30.82;26.40
64792;BME280;51226;47.504;19.074;2023-05-31T13:32:28;100380.34;;;30.79;25.14
64792;BME280;51226;47.504;19.074;2023-05-31T13:35:32;100380.69;;;30.72;24.65
64792;BME280;51226;47.504;19.074;2023-05-31T13:38:34;100377.78;;;30.35;25.79
64792;BME280;51226;47.504;19.074;2023-05-31T13:41:40;100375.50;;;30.05;25.15
64792;BME280;51226;47.504;19.074;2023-05-31T13:44:43;100369.50;;;29.99;27.37
64792;BME280;51226;47.504;19.074;2023-05-31T13:47:46;100371.03;;;30.06;25.77
64792;BME280;51226;47.504;19.074;2023-05-31T13:50:48;100365.16;;;30.17;24.93
64792;BME280;51226;47.504;19.074;2023-05-31T13:53:52;100353.19;;;30.24;23.84
64792;BME280;51226;47.504;19.074;2023-05-31T13:56:54;100360.13;;;30.09;24.86
64792;BME280;51226;47.504;19.074;2023-05-31T14:00:01;100353.84;;;29.88;26.85
64792;BME280;51226;47.504;19.074;2023-05-31T14:03:11;100351.84;;;29.93;25.23
64792;BME280;51226;47.504;19.074;2023-05-31T14:06:14;100353.91;;;29.86;25.73
64792;BME280;51226;47.504;19.074;2023-05-31T14:09:17;100341.50;;;29.84;27.08
64792;BME280;51226;47.504;19.074;2023-05-31T14:12:21;100339.22;;;29.73;26.13
64792;BME280;51226;47.504;19.074;2023-05-31T14:15:23;100344.19;;;29.84;26.08
64792;BME280;51226;47.504;19.074;2023-05-31T14:18:29;100337.53;;;29.70;26.31
64792;BME280;51226;47.504;19.074;2023-05-31T14:21:32;100339.94;;;29.77;26.08
64792;BME280;51226;47.504;19.074;2023-05-31T14:24:35;100336.72;;;29.68;26.28
64792;BME280;51226;47.504;19.074;2023-05-31T14:27:37;100333.00;;;29.50;26.40
64792;BME280;51226;47.504;19.074;2023-05-31T14:30:40;100335.19;;;29.41;26.79
64792;BME280;51226;47.504;19.074;2023-05-31T14:33:43;100332.37;;;29.44;26.40
64792;BME280;51226;47.504;19.074;2023-05-31T14:36:46;100333.72;;;29.32;27.02
64792;BME280;51226;47.504;19.074;2023-05-31T14:39:49;100333.75;;;29.08;31.98
64792;BME280;51226;47.504;19.074;2023-05-31T14:42:52;100331.59;;;29.18;27.09
64792;BME280;51226;47.504;19.074;2023-05-31T14:45:55;100343.81;;;29.03;27.63
64792;BME280;51226;47.504;19.074;2023-05-31T14:48:58;100336.25;;;29.13;27.73
64792;BME280;51226;47.504;19.074;2023-05-31T14:52:00;100339.19;;;29.07;27.90
64792;BME280;51226;47.504;19.074;2023-05-31T14:55:04;100338.25;;;29.08;28.00
64792;BME280;51226;47.504;19.074;2023-05-31T14:58:07;100334.81;;;29.04;27.33
64792;BME280;51226;47.504;19.074;2023-05-31T15:01:10;100333.22;;;28.98;27.50
64792;BME280;51226;47.504;19.074;2023-05-31T15:04:13;100337.00;;;28.94;27.56
64792;BME280;51226;47.504;19.074;2023-05-31T15:07:17;100334.09;;;28.77;27.86
64792;BME280;51226;47.504;19.074;2023-05-31T15:10:19;100326.56;;;28.63;28.08
64792;BME280;51226;47.504;19.074;2023-05-31T15:13:23;100328.31;;;28.64;27.06
64792;BME280;51226;47.504;19.074;2023-05-31T15:16:26;100328.97;;;28.45;27.57
64792;BME280;51226;47.504;19.074;2023-05-31T15:19:31;100327.63;;;28.34;27.91
64792;BME280;51226;47.504;19.074;2023-05-31T15:22:33;100323.56;;;28.22;28.29
64792;BME280;51226;47.504;19.074;2023-05-31T15:25:37;100324.44;;;28.22;28.17
64792;BME280;51226;47.504;19.074;2023-05-31T15:28:39;100326.06;;;28.01;28.76
64792;BME280;51226;47.504;19.074;2023-05-31T15:31:42;100325.31;;;27.98;28.04
64792;BME280;51226;47.504;19.074;2023-05-31T15:34:45;100320.66;;;28.03;27.61
64792;BME280;51226;47.504;19.074;2023-05-31T15:37:48;100323.62;;;27.95;27.67
64792;BME280;51226;47.504;19.074;2023-05-31T15:40:50;100316.31;;;27.73;28.76
64792;BME280;51226;47.504;19.074;2023-05-31T15:43:53;100313.62;;;27.73;27.57
64792;BME280;51226;47.504;19.074;2023-05-31T15:46:56;100306.03;;;27.60;27.55
64792;BME280;51226;47.504;19.074;2023-05-31T15:49:59;100307.69;;;27.64;27.87
64792;BME280;51226;47.504;19.074;2023-05-31T15:53:03;100313.69;;;27.45;28.18
64792;BME280;51226;47.504;19.074;2023-05-31T15:56:06;100306.06;;;27.31;27.83
64792;BME280;51226;47.504;19.074;2023-05-31T15:59:08;100307.22;;;27.23;28.12
64792;BME280;51226;47.504;19.074;2023-05-31T16:02:12;100302.00;;;27.18;27.83
64792;BME280;51226;47.504;19.074;2023-05-31T16:05:15;100300.91;;;27.25;27.61
64792;BME280;51226;47.504;19.074;2023-05-31T16:08:18;100294.59;;;27.26;27.68